createdAt,value
2016-06-03T00:08:13.987Z,1000.04
2016-06-03T00:23:14.027Z,1000.02
2016-06-03T00:38:14.052Z,1000.09
2016-06-03T00:53:18.311Z,999.99
2016-06-03T01:08:16.102Z,1000.02
2016-06-03T01:23:14.033Z,999.93
2016-06-03T01:38:20.323Z,999.93
2016-06-03T01:53:22.192Z,999.96
2016-06-03T02:08:22.403Z,999.99
2016-06-03T02:23:14.085Z,999.89
2016-06-03T02:38:14.875Z,999.85
2016-06-03T02:53:14.071Z,1000.12
2016-06-03T03:08:14.065Z,1000.05
2016-06-03T03:23:14.903Z,1000.05
2016-06-03T03:38:16.207Z,999.96
2016-06-03T03:53:16.217Z,1000.01
2016-06-03T04:08:14.055Z,1000.12
2016-06-03T04:23:18.423Z,1000.19
2016-06-03T04:38:14.073Z,1000.09
2016-06-03T04:53:14.066Z,1000.01
2016-06-03T05:08:16.138Z,1000.21
2016-06-03T05:23:24.537Z,1000.19
2016-06-03T05:38:22.515Z,1000.54
2016-06-03T05:53:24.508Z,1000.43
2016-06-03T06:08:16.205Z,1000.38
2016-06-03T06:23:14.137Z,1000.37
2016-06-03T06:38:20.458Z,1000.55
2016-06-03T06:53:18.466Z,1000.55
2016-06-03T07:08:14.312Z,1000.56
2016-06-03T07:23:18.636Z,1000.61
2016-06-03T07:38:16.426Z,1000.68
2016-06-03T07:53:16.497Z,1000.36
2016-06-03T08:08:14.319Z,1000.48
2016-06-03T08:23:14.359Z,1000.33
2016-06-03T08:38:24.650Z,1000.25
2016-06-03T08:53:16.533Z,1000.36
2016-06-03T09:08:16.465Z,1000.63
2016-06-03T09:23:14.334Z,1000.47
2016-06-03T09:38:15.202Z,1000.32
2016-06-03T09:53:16.492Z,1000.42
2016-06-03T10:08:20.688Z,1000.37
2016-06-03T10:23:20.745Z,1000.62
2016-06-03T10:38:18.505Z,1000.37
2016-06-03T10:53:14.450Z,1000.26
2016-06-03T11:08:16.491Z,1000.14
2016-06-03T11:23:14.390Z,1000.03
2016-06-03T11:38:14.416Z,1000.09
2016-06-03T11:53:26.877Z,1000.2
2016-06-03T12:08:16.605Z,1000.16
2016-06-03T12:23:16.505Z,1000.03
2016-06-03T12:38:20.780Z,999.91
2016-06-03T12:53:14.413Z,999.88
2016-06-03T13:08:14.408Z,999.76
2016-06-03T13:23:16.604Z,999.8
2016-06-03T13:38:27.629Z,999.67
2016-06-03T13:53:18.732Z,999.5
2016-06-03T14:08:14.442Z,999.69
2016-06-03T14:23:16.594Z,999.55
2016-06-03T14:38:18.650Z,999.53
2016-06-03T14:53:20.830Z,999.34
2016-06-03T15:08:16.602Z,999.33
2016-06-03T15:23:16.518Z,999.12
2016-06-03T15:38:16.668Z,999.34
2016-06-03T15:53:29.333Z,999.34
2016-06-03T16:08:14.637Z,999.22
2016-06-03T16:23:14.719Z,999.19
2016-06-03T16:38:16.852Z,999.24
2016-06-03T16:53:16.846Z,999.4
2016-06-03T17:08:16.855Z,999.43
2016-06-03T17:23:21.021Z,999.3
2016-06-03T17:38:23.189Z,999.22
2016-06-03T17:53:19.038Z,999.24
2016-06-03T18:08:16.751Z,999.33
2016-06-03T18:23:14.713Z,999.5
2016-06-03T18:38:18.926Z,999.4
2016-06-03T18:53:23.247Z,999.46
2016-06-03T19:08:14.741Z,999.59
2016-06-03T19:23:20.859Z,999.67
2016-06-03T19:38:23.056Z,999.83
2016-06-03T19:53:18.877Z,999.95
2016-06-03T20:08:16.918Z,1000.01
2016-06-03T20:23:21.052Z,1000.16
2016-06-03T20:38:29.389Z,1000.27
2016-06-03T20:53:31.635Z,1000.36
2016-06-03T21:08:21.095Z,1000.55
2016-06-03T21:23:25.432Z,1000.56
2016-06-03T21:38:14.832Z,1000.52
2016-06-03T21:53:14.809Z,1000.53
2016-06-03T22:08:16.803Z,1000.89
2016-06-03T22:23:16.844Z,1000.86
2016-06-03T22:38:19.102Z,1000.76
2016-06-03T22:53:18.908Z,1000.84
2016-06-03T23:08:14.823Z,1000.65
2016-06-03T23:23:14.833Z,1000.73
2016-06-03T23:38:21.170Z,1000.56
2016-06-03T23:53:16.898Z,1000.76
